| time (UTC) | temp C | wind direction | speed KPH | gust KPH | rain 1hr cm | rain 24hr cm | rain mn cm | humidity % | barometer mb |
| 20260507093317 | 13 | 22 | 9.7 | 9.7 | 0.00 | 0.00 | 0.00 | 7 | 1012.8 |
| 20260507092317 | 12 | 22 | 0.0 | 0.0 | 0.00 | 0.00 | 0.00 | 7 | 1012.8 |
| 20260507091317 | 12 | 338 | 1.6 | 1.6 | 0.00 | 0.00 | 0.00 | 7 | 1012.8 |
| 20260507090332 | 12 | 315 | 3.2 | 3.2 | 0.00 | 0.00 | 0.00 | 8 | 1012.8 |
| 20260507085317 | 12 | 315 | 0.0 | 0.0 | 0.00 | 0.00 | 0.00 | 7 | 1012.8 |
| 20260507084317 | 12 | 315 | 8.0 | 8.0 | 0.00 | 0.00 | 0.00 | 8 | 1012.8 |
| 20260507083332 | 12 | 315 | 0.0 | 0.0 | 0.00 | 0.00 | 0.00 | 8 | 1012.8 |
| 20260507082317 | 12 | 315 | 0.0 | 0.0 | 0.00 | 0.00 | 0.00 | 8 | 1012.8 |
| 20260507081316 | 11 | 292 | 0.0 | 0.0 | 0.00 | 0.00 | 0.00 | 8 | 1012.8 |
| 20260507080317 | 11 | 292 | 0.0 | 0.0 | 0.00 | 0.00 | 0.00 | 8 | 1012.8 |
| 20260507075317 | 10 | 0 | 0.0 | 0.0 | 0.00 | 0.00 | 0.00 | 8 | 1012.8 |
| 20260507074317 | 10 | 0 | 8.0 | 8.0 | 0.00 | 0.00 | 0.00 | 8 | 1011.8 |
| 20260507073317 | 10 | 338 | 0.0 | 0.0 | 0.00 | 0.00 | 0.00 | 8 | 1011.8 |
| 20260507072332 | 9 | 292 | 0.0 | 0.0 | 0.00 | 0.00 | 0.00 | 9 | 1012.8 |
| 20260507071332 | 8 | 292 | 0.0 | 0.0 | 0.00 | 0.00 | 0.00 | 9 | 1011.8 |
| 20260507070317 | 8 | 292 | 0.0 | 0.0 | 0.00 | 0.00 | 0.00 | 9 | 1011.8 |
| 20260507065318 | 8 | 315 | 0.0 | 0.0 | 0.00 | 0.00 | 0.00 | 9 | 1011.8 |
| 20260507064317 | 8 | 315 | 0.0 | 0.0 | 0.00 | 0.00 | 0.00 | 9 | 1011.8 |
| 20260507063332 | 8 | 315 | 0.0 | 0.0 | 0.00 | 0.00 | 0.00 | 9 | 1011.8 |
| 20260507062317 | 8 | 315 | 4.8 | 4.8 | 0.00 | 0.00 | 0.00 | 9 | 1011.8 |
| 20260507061331 | 8 | 315 | 0.0 | 0.0 | 0.00 | 0.00 | 0.00 | 9 | 1011.8 |
| 20260507060332 | 8 | 315 | 6.4 | 6.4 | 0.00 | 0.00 | 0.00 | 9 | 1011.8 |
| 20260507055317 | 8 | 338 | 0.0 | 0.0 | 0.00 | 0.00 | 0.00 | 9 | 1011.8 |
| 20260507054332 | 7 | 338 | 8.0 | 8.0 | 0.00 | 0.00 | 0.00 | 9 | 1011.8 |
| 20260507053332 | 7 | 315 | 9.7 | 9.7 | 0.00 | 0.00 | 0.00 | 9 | 1011.8 |
| 20260507052317 | 7 | 338 | 8.0 | 8.0 | 0.00 | 0.00 | 0.00 | 9 | 1011.8 |
| 20260507051332 | 7 | 315 | 0.0 | 0.0 | 0.00 | 0.00 | 0.00 | 9 | 1010.8 |
| 20260507050332 | 7 | 315 | 0.0 | 0.0 | 0.00 | 0.00 | 0.00 | 9 | 1010.8 |
| 20260507045332 | 7 | 315 | 6.4 | 6.4 | 0.00 | 0.00 | 0.00 | 9 | 1010.8 |
| 20260507044317 | 7 | 315 | 3.2 | 3.2 | 0.00 | 0.00 | 0.00 | 9 | 1010.8 |
| 20260507043317 | 7 | 338 | 0.0 | 0.0 | 0.00 | 0.00 | 0.00 | 9 | 1010.8 |
| 20260507042332 | 7 | 338 | 4.8 | 6.4 | 0.00 | 0.00 | 0.00 | 9 | 1010.8 |
| 20260507041332 | 7 | 315 | 0.0 | 0.0 | 0.00 | 0.00 | 0.00 | 9 | 1010.8 |
| 20260507040317 | 7 | 315 | 0.0 | 0.0 | 0.00 | 0.00 | 0.00 | 9 | 1010.8 |
| 20260507035317 | 8 | 338 | 0.0 | 0.0 | 0.00 | 0.00 | 0.00 | 9 | 1010.8 |
| 20260507034317 | 8 | 338 | 0.0 | 0.0 | 0.00 | 0.00 | 0.00 | 9 | 1010.8 |
| 20260507033332 | 8 | 338 | 0.0 | 0.0 | 0.00 | 0.00 | 0.00 | 9 | 1010.8 |
| 20260507032317 | 8 | 338 | 0.0 | 0.0 | 0.00 | 0.00 | 0.00 | 9 | 1010.8 |
| 20260507031332 | 8 | 338 | 0.0 | 0.0 | 0.00 | 0.00 | 0.00 | 9 | 1010.8 |
| 20260507030332 | 8 | 338 | 0.0 | 0.0 | 0.00 | 0.00 | 0.00 | 9 | 1010.8 |
| 20260507025332 | 8 | 315 | 0.0 | 0.0 | 0.00 | 0.00 | 0.00 | 9 | 1010.8 |
| 20260507024332 | 8 | 315 | 0.0 | 0.0 | 0.00 | 0.00 | 0.00 | 9 | 1009.8 |
| 20260507023332 | 8 | 315 | 0.0 | 0.0 | 0.00 | 0.00 | 0.00 | 9 | 1009.8 |
| 20260507022317 | 8 | 338 | 0.0 | 0.0 | 0.00 | 0.00 | 0.00 | 9 | 1009.8 |
| 20260507021317 | 8 | 338 | 0.0 | 0.0 | 0.00 | 0.00 | 0.00 | 9 | 1009.8 |
| 20260507020332 | 8 | 338 | 0.0 | 0.0 | 0.00 | 0.00 | 0.00 | 9 | 1009.8 |
| 20260507015317 | 8 | 338 | 0.0 | 0.0 | 0.00 | 0.00 | 0.00 | 9 | 1009.8 |
| 20260507014317 | 8 | 338 | 0.0 | 0.0 | 0.00 | 0.00 | 0.00 | 9 | 1009.8 |
| 20260507013317 | 8 | 338 | 0.0 | 0.0 | 0.00 | 0.00 | 0.00 | 9 | 1009.8 |
| 20260507012317 | 8 | 338 | 0.0 | 0.0 | 0.00 | 0.00 | 0.00 | 9 | 1009.8 |
| 20260507011317 | 8 | 338 | 0.0 | 0.0 | 0.00 | 0.00 | 0.00 | 9 | 1009.8 |
| 20260507010317 | 8 | 338 | 0.0 | 0.0 | 0.00 | 0.00 | 0.00 | 9 | 1009.8 |
| 20260507005332 | 8 | 338 | 0.0 | 0.0 | 0.00 | 0.00 | 0.00 | 9 | 1009.8 |
| 20260507004317 | 8 | 338 | 0.0 | 0.0 | 0.00 | 0.00 | 0.00 | 9 | 1009.8 |
| 20260507003332 | 8 | 338 | 0.0 | 0.0 | 0.00 | 0.00 | 0.00 | 9 | 1009.8 |
| 20260507002332 | 8 | 338 | 0.0 | 0.0 | 0.00 | 0.00 | 0.00 | 9 | 1009.8 |
| 20260507001317 | 8 | 338 | 0.0 | 0.0 | 0.00 | 0.00 | 0.00 | 9 | 1009.8 |
| 20260507000316 | 8 | 338 | 0.0 | 0.0 | 0.00 | 0.00 | 0.00 | 9 | 1009.8 |
| 20260506235317 | 8 | 338 | 0.0 | 0.0 | 0.00 | 0.00 | 0.00 | 9 | 1009.8 |
| 20260506234332 | 8 | 338 | 0.0 | 0.0 | 0.00 | 0.00 | 0.00 | 9 | 1009.8 |
| 20260506233317 | 8 | 338 | 0.0 | 0.0 | 0.00 | 0.00 | 0.00 | 9 | 1009.8 |
| 20260506232317 | 8 | 338 | 0.0 | 0.0 | 0.00 | 0.00 | 0.00 | 9 | 1009.8 |
| 20260506231317 | 8 | 338 | 0.0 | 0.0 | 0.00 | 0.00 | 0.00 | 9 | 1009.8 |
| 20260506230332 | 8 | 338 | 8.0 | 8.0 | 0.00 | 0.00 | 0.00 | 9 | 1009.8 |
| 20260506225317 | 7 | 338 | 3.2 | 3.2 | 0.00 | 0.00 | 0.00 | 9 | 1009.8 |
| 20260506224317 | 7 | 338 | 4.8 | 4.8 | 0.00 | 0.00 | 0.00 | 9 | 1008.8 |
| 20260506223332 | 7 | 338 | 8.0 | 8.0 | 0.00 | 0.00 | 0.00 | 9 | 1008.8 |
| 20260506222318 | 7 | 338 | 0.0 | 0.0 | 0.00 | 0.00 | 0.00 | 9 | 1009.8 |
| 20260506221332 | 7 | 315 | 0.0 | 0.0 | 0.00 | 0.00 | 0.00 | 9 | 1008.8 |
| 20260506220317 | 8 | 315 | 0.0 | 0.0 | 0.00 | 0.00 | 0.00 | 9 | 1008.8 |
| 20260506215318 | 8 | 338 | 0.0 | 0.0 | 0.00 | 0.00 | 0.00 | 9 | 1008.8 |
| 20260506214317 | 8 | 338 | 0.0 | 0.0 | 0.00 | 0.00 | 0.00 | 9 | 1008.8 |
| 20260506213332 | 8 | 338 | 0.0 | 0.0 | 0.00 | 0.00 | 0.00 | 9 | 1008.8 |
| 20260506212317 | 8 | 338 | 0.0 | 0.0 | 0.00 | 0.00 | 0.00 | 9 | 1008.8 |
| 20260506211332 | 8 | 338 | 0.0 | 0.0 | 0.00 | 0.00 | 0.00 | 9 | 1008.8 |
| 20260506210317 | 7 | 315 | 0.0 | 0.0 | 0.00 | 0.00 | 0.00 | 9 | 1008.8 |
| 20260506205332 | 7 | 315 | 0.0 | 0.0 | 0.00 | 0.00 | 0.00 | 9 | 1008.8 |
| 20260506204333 | 7 | 338 | 8.0 | 8.0 | 0.00 | 0.00 | 0.00 | 9 | 1008.8 |
| 20260506203333 | 8 | 338 | 3.2 | 3.2 | 0.00 | 0.00 | 0.00 | 9 | 1008.8 |
| 20260506202317 | 8 | 338 | 8.0 | 8.0 | 0.00 | 0.00 | 0.00 | 9 | 1008.8 |
| 20260506201333 | 8 | 338 | 8.0 | 8.0 | 0.00 | 0.00 | 0.00 | 9 | 1008.8 |
| 20260506200332 | 8 | 338 | 4.8 | 6.4 | 0.00 | 0.00 | 0.00 | 9 | 1008.8 |
| 20260506195318 | 8 | 338 | 0.0 | 0.0 | 0.00 | 0.00 | 0.00 | 9 | 1008.8 |
| 20260506194317 | 8 | 338 | 0.0 | 0.0 | 0.00 | 0.00 | 0.00 | 9 | 1008.8 |
| 20260506193332 | 8 | 338 | 8.0 | 8.0 | 0.00 | 0.00 | 0.00 | 9 | 1008.8 |
| 20260506192317 | 8 | 338 | 6.4 | 6.4 | 0.00 | 0.00 | 0.00 | 9 | 1008.8 |
| 20260506191332 | 8 | 315 | 8.0 | 8.0 | 0.00 | 0.00 | 0.00 | 9 | 1007.7 |
| 20260506190317 | 8 | 338 | 0.0 | 0.0 | 0.00 | 0.00 | 0.00 | 9 | 1007.7 |
| 20260506185332 | 8 | 338 | 0.0 | 0.0 | 0.00 | 0.00 | 0.00 | 9 | 1007.7 |
| 20260506184317 | 8 | 338 | 3.2 | 3.2 | 0.00 | 0.00 | 0.00 | 9 | 1007.7 |
| 20260506183332 | 8 | 338 | 8.0 | 8.0 | 0.00 | 0.00 | 0.00 | 9 | 1007.7 |
| 20260506182317 | 8 | 338 | 3.2 | 3.2 | 0.00 | 0.00 | 0.00 | 9 | 1007.7 |
| 20260506181332 | 8 | 338 | 0.0 | 0.0 | 0.00 | 0.00 | 0.00 | 9 | 1006.7 |
| 20260506180333 | 8 | 338 | 8.0 | 8.0 | 0.00 | 0.00 | 0.00 | 9 | 1006.7 |
| 20260506175332 | 8 | 338 | 3.2 | 3.2 | 0.00 | 0.00 | 0.00 | 9 | 1006.7 |
| 20260506174317 | 8 | 22 | 1.6 | 1.6 | 0.00 | 0.00 | 0.00 | 9 | 1006.7 |
| 20260506173318 | 8 | 315 | 8.0 | 8.0 | 0.00 | 0.00 | 0.00 | 9 | 1006.7 |
| 20260506172317 | 8 | 338 | 9.7 | 9.7 | 0.00 | 0.00 | 0.00 | 9 | 1006.7 |
| 20260506171317 | 8 | 315 | 0.0 | 0.0 | 0.00 | 0.00 | 0.00 | 9 | 1006.7 |
| 20260506170317 | 8 | 338 | 0.0 | 0.0 | 0.00 | 0.00 | 0.00 | 9 | 1006.7 |
| 20260506165317 | 8 | 315 | 3.2 | 3.2 | 0.00 | 0.00 | 0.00 | 9 | 1006.7 |
| 20260506164317 | 8 | 338 | 4.8 | 6.4 | 0.00 | 0.00 | 0.00 | 9 | 1006.7 |
| 20260506163317 | 8 | 338 | 0.0 | 0.0 | 0.00 | 0.00 | 0.00 | 9 | 1006.7 |
| 20260506162332 | 8 | 315 | 8.0 | 8.0 | 0.00 | 0.00 | 0.00 | 9 | 1006.7 |
| 20260506161317 | 8 | 338 | 0.0 | 0.0 | 0.00 | 0.00 | 0.00 | 9 | 1006.7 |
| 20260506160317 | 8 | 338 | 0.0 | 0.0 | 0.00 | 0.00 | 0.00 | 9 | 1006.7 |
| 20260506155317 | 8 | 292 | 8.0 | 8.0 | 0.00 | 0.00 | 0.00 | 9 | 1006.7 |
| 20260506154317 | 8 | 315 | 8.0 | 8.0 | 0.00 | 0.00 | 0.00 | 9 | 1006.7 |
| 20260506153332 | 8 | 338 | 0.0 | 0.0 | 0.00 | 0.00 | 0.00 | 9 | 1006.7 |
| 20260506152317 | 8 | 338 | 0.0 | 0.0 | 0.00 | 0.00 | 0.00 | 9 | 1006.7 |
| 20260506151332 | 8 | 338 | 0.0 | 0.0 | 0.00 | 0.00 | 0.00 | 9 | 1006.7 |
| 20260506150202 | 8 | 338 | 1.6 | 1.6 | 0.00 | 0.00 | 0.00 | 9 | 1006.7 |
| 20260506145202 | 8 | 315 | 9.7 | 9.7 | 0.00 | 0.00 | 0.00 | 9 | 1006.0 |
| 20260506144203 | 8 | 338 | 6.4 | 8.0 | 0.00 | 0.00 | 0.00 | 9 | 1006.0 |
| 20260506143202 | 8 | 338 | 11.3 | 11.3 | 0.00 | 0.00 | 0.00 | 9 | 1006.0 |
| 20260506142202 | 8 | 338 | 11.3 | 11.3 | 0.00 | 0.00 | 0.00 | 9 | 1006.0 |
| 20260506141202 | 8 | 338 | 0.0 | 0.0 | 0.00 | 0.00 | 0.00 | 9 | 1006.0 |
| 20260506140202 | 8 | 338 | 8.0 | 8.0 | 0.00 | 0.00 | 0.00 | 9 | 1006.0 |
| 20260506135202 | 8 | 338 | 11.3 | 12.9 | 0.00 | 0.00 | 0.00 | 9 | 1006.0 |
| 20260506134204 | 8 | 338 | 3.2 | 3.2 | 0.00 | 0.00 | 0.00 | 9 | 1006.0 |
| 20260506133202 | 8 | 338 | 11.3 | 11.3 | 0.00 | 0.00 | 0.00 | 9 | 1006.0 |
| 20260506132202 | 8 | 338 | 4.8 | 6.4 | 0.00 | 0.00 | 0.00 | 9 | 1006.0 |
| 20260506131202 | 8 | 315 | 0.0 | 0.0 | 0.00 | 0.00 | 0.00 | 9 | 1006.0 |
| 20260506130201 | 8 | 338 | 9.7 | 9.7 | 0.00 | 0.00 | 0.00 | 9 | 1006.0 |
| 20260506125202 | 8 | 315 | 8.0 | 8.0 | 0.00 | 0.00 | 0.00 | 9 | 1006.0 |
| 20260506124202 | 8 | 338 | 0.0 | 0.0 | 0.00 | 0.00 | 0.00 | 9 | 1006.0 |
| 20260506123202 | 8 | 338 | 8.0 | 8.0 | 0.00 | 0.00 | 0.00 | 9 | 1006.0 |
| 20260506122202 | 8 | 338 | 9.7 | 11.3 | 0.00 | 0.00 | 0.00 | 9 | 1006.0 |
| 20260506121201 | 8 | 315 | 8.0 | 8.0 | 0.00 | 0.00 | 0.00 | 9 | 1006.0 |
| 20260506120203 | 8 | 338 | 8.0 | 8.0 | 0.00 | 0.00 | 0.00 | 9 | 1006.0 |
| 20260506115202 | 8 | 22 | 0.0 | 0.0 | 0.00 | 0.00 | 0.00 | 9 | 1006.0 |
| 20260506114202 | 8 | 338 | 8.0 | 8.0 | 0.00 | 0.00 | 0.00 | 9 | 1006.0 |
| 20260506113202 | 8 | 0 | 8.0 | 8.0 | 0.00 | 0.00 | 0.00 | 9 | 1006.0 |
| 20260506112201 | 8 | 315 | 6.4 | 6.4 | 0.00 | 0.00 | 0.00 | 9 | 1006.0 |
| 20260506111202 | 8 | 315 | 8.0 | 8.0 | 0.00 | 0.00 | 0.00 | 9 | 1005.0 |
| 20260506110202 | 8 | 315 | 9.7 | 9.7 | 0.00 | 0.00 | 0.00 | 9 | 1005.0 |
| 20260506105202 | 8 | 338 | 9.7 | 9.7 | 0.00 | 0.00 | 0.00 | 9 | 1006.0 |
| 20260506104202 | 8 | 338 | 4.8 | 6.4 | 0.00 | 0.00 | 0.00 | 9 | 1005.0 |
| 20260506103202 | 8 | 338 | 6.4 | 6.4 | 0.00 | 0.00 | 0.00 | 9 | 1005.0 |
| 20260506102202 | 8 | 0 | 8.0 | 8.0 | 0.00 | 0.00 | 0.00 | 9 | 1005.0 |
| 20260506101202 | 8 | 45 | 4.8 | 4.8 | 0.00 | 0.00 | 0.00 | 9 | 1005.0 |
| 20260506100202 | 8 | 338 | 11.3 | 11.3 | 0.00 | 0.00 | 0.00 | 9 | 1005.0 |
| 20260506095202 | 9 | 338 | 4.8 | 4.8 | 0.00 | 0.00 | 0.00 | 9 | 1005.0 |
| 20260506094201 | 9 | 338 | 11.3 | 12.9 | 0.00 | 0.00 | 0.00 | 9 | 1005.0 |